Grójec-Słomczyn Airfield

EPGS · Voivodato de Mazovia, Polonia

METAR pasados EPGS · Grójec-Słomczyn Airfield

A continuación puedes ver los METAR de los últimos días. Selecciona un año para ver los METAR más antiguos, desde el año 2007 en adelante.

16 de julio de 2024

Hora Código Tiempo Temp. Visibilidad Cielo nuboso Viento METAR/SPECI
02:30
V
21 °C 10 km+ - 110° 110° 4 kt METAR EPWA 160030Z 11004KT CAVOK 21/17 Q1014 NOSIG
02:00
V
21 °C 10 km+ - 120° 120° 4 kt METAR EPWA 160000Z 12004KT CAVOK 21/17 Q1014 NOSIG
01:30
V
22 °C 10 km+ - 150° 150° 3 kt METAR EPWA 152330Z 15003KT CAVOK 22/17 Q1014 NOSIG
01:00
V
22 °C 10 km+ - 120° 120° 3 kt METAR EPWA 152300Z 12003KT CAVOK 22/17 Q1014 NOSIG
00:30
V
22 °C 10 km+ - 140° 140° 5 kt METAR EPWA 152230Z 14005KT CAVOK 22/17 Q1014 NOSIG
00:00
V
23 °C 10 km+ - 140° 140° 6 kt METAR EPWA 152200Z 14006KT CAVOK 23/17 Q1014 NOSIG

15 de julio de 2024

Hora Código Tiempo Temp. Visibilidad Cielo nuboso Viento METAR/SPECI
23:30
V
23 °C 10 km+ - 140° 140° 5 kt METAR EPWA 152130Z 14005KT CAVOK 23/17 Q1014 NOSIG
23:00
V
23 °C 10 km+ - 150° 150° 6 kt METAR EPWA 152100Z 15006KT CAVOK 23/17 Q1014 NOSIG
22:30
V
24 °C 10 km+ - 150° 150° 7 kt METAR EPWA 152030Z 15007KT CAVOK 24/17 Q1014 NOSIG
22:00
V
24 °C 10 km+ - 140° 140° 6 kt METAR EPWA 152000Z 14006KT CAVOK 24/17 Q1014 NOSIG
21:30
V
25 °C 10 km+ - 140° 140° 5 kt METAR EPWA 151930Z 14005KT CAVOK 25/17 Q1014 NOSIG
21:00
V
26 °C 10 km+ - 150° 150° 6 kt METAR EPWA 151900Z 15006KT CAVOK 26/17 Q1014 NOSIG
20:30
V
27 °C 10 km+ - 140° 140° 7 kt METAR EPWA 151830Z 14007KT CAVOK 27/17 Q1014 NOSIG
20:00
V
28 °C 10 km+ - 130° 130° 7 kt METAR EPWA 151800Z 13007KT CAVOK 28/17 Q1014 NOSIG
19:30
V
28 °C 10 km+ - 130° 130° 6 kt METAR EPWA 151730Z 13006KT CAVOK 28/16 Q1014 NOSIG
19:00
V
30 °C 10 km+ - 120° 120° 6 kt METAR EPWA 151700Z 12006KT CAVOK 30/16 Q1014 NOSIG
18:30
V
29 °C 10 km+ - Var Var 3 kt METAR EPWA 151630Z VRB03KT CAVOK 29/16 Q1014 NOSIG
18:00
V
30 °C 10 km+ - 160° 160° 4 kt METAR EPWA 151600Z 16004KT 130V220 CAVOK 30/16 Q1014 NOSIG
17:30
V
31 °C 10 km+ - Var Var 1 kt METAR EPWA 151530Z VRB01KT CAVOK 31/17 Q1014 NOSIG
17:00
V
31 °C 10 km+ - Var Var 2 kt METAR EPWA 151500Z VRB02KT CAVOK 31/16 Q1014 NOSIG
16:30
V
30 °C 10 km+ - 190° 190° 5 kt METAR EPWA 151430Z 19005KT 140V260 CAVOK 30/17 Q1014 NOSIG
16:00
V
30 °C 10 km+ - Var Var 4 kt METAR EPWA 151400Z VRB04KT CAVOK 30/16 Q1014 NOSIG
15:30
V
30 °C 10 km+ - Var Var 4 kt METAR EPWA 151330Z VRB04KT CAVOK 30/17 Q1015 NOSIG
15:00
V
29 °C 10 km+ - 150° 150° 5 kt METAR EPWA 151300Z 15005KT 030V200 CAVOK 29/17 Q1015 NOSIG
14:30
V
29 °C 10 km+ - 160° 160° 5 kt METAR EPWA 151230Z 16005KT 120V230 CAVOK 29/17 Q1015 NOSIG
14:00
V
29 °C 10 km+ - 180° 180° 4 kt METAR EPWA 151200Z 18004KT 080V240 CAVOK 29/16 Q1015 NOSIG
13:30
V
29 °C 10 km+ - Var Var 2 kt METAR EPWA 151130Z VRB02KT CAVOK 29/16 Q1015 NOSIG
13:00
V
28 °C 10 km+ - 140° 140° 5 kt METAR EPWA 151100Z 14005KT 080V190 9999 FEW048 28/17 Q1015 NOSIG
12:30
V
28 °C 10 km+ - 250° 250° 3 kt METAR EPWA 151030Z 25003KT 190V350 9999 FEW048 28/17 Q1015 NOSIG
12:00
V
27 °C 10 km+ - Var Var 4 kt METAR EPWA 151000Z VRB04KT 9999 FEW043 27/18 Q1015 NOSIG
11:30
V
27 °C 10 km+ - Var Var 3 kt METAR EPWA 150930Z VRB03KT 9999 SCT040 27/17 Q1015 NOSIG
11:00
V
26 °C 10 km+ - 190° 190° 3 kt METAR EPWA 150900Z 19003KT 140V270 9999 SCT036 26/18 Q1015 NOSIG
10:30
V
26 °C 10 km+ - 190° 190° 3 kt METAR EPWA 150830Z 19003KT 100V250 9999 SCT028 26/18 Q1015 NOSIG
10:00
V
25 °C 10 km+ - 160° 160° 4 kt METAR EPWA 150800Z 16004KT 100V200 9999 SCT026 25/18 Q1015 NOSIG
09:30
V
24 °C 10 km+ - Var Var 3 kt METAR EPWA 150730Z VRB03KT 9999 FEW021 24/19 Q1015 NOSIG
09:00
V
24 °C 10 km+ - Var Var 2 kt METAR EPWA 150700Z VRB02KT 9999 FEW018 24/19 Q1015 NOSIG
08:30
V
23 °C 10 km+ - Var Var 2 kt METAR EPWA 150630Z VRB02KT 9999 FEW015 23/19 Q1016 NOSIG
08:00
V
22 °C 10 km+ - Var Var 2 kt METAR EPWA 150600Z VRB02KT CAVOK 22/19 Q1016 NOSIG
07:30
V
22 °C 10 km+ - 190° 190° 3 kt METAR EPWA 150530Z 19003KT 160V260 CAVOK 22/19 Q1016 NOSIG
07:00
V
21 °C 10 km+ - Var Var 2 kt METAR EPWA 150500Z VRB02KT CAVOK 21/19 Q1015 NOSIG
06:30
V
20 °C 10 km+ - 250° 250° 2 kt METAR EPWA 150430Z 25002KT CAVOK 20/19 Q1015 NOSIG
06:00
V
20 °C 10 km+ - 110° 110° 4 kt METAR EPWA 150400Z 11004KT 9999 FEW028 20/18 Q1015 NOSIG
05:30
V
19 °C 10 km+ 4.800 ft Var Var 2 kt METAR EPWA 150330Z VRB02KT 9999 SCT028 BKN048 19/18 Q1015 NOSIG
05:00
M
19 °C 10 km+ 2.500 ft Var Var 2 kt METAR EPWA 150300Z VRB02KT 9999 BKN025 19/18 Q1015 NOSIG
04:30
V
18 °C 10 km+ - 360° 360° 0 kt METAR EPWA 150230Z 00000KT 9999 FEW025 18/18 Q1015 NOSIG
04:00
V
18 °C 10 km+ - 360° 360° 0 kt METAR EPWA 150200Z 00000KT CAVOK 18/18 Q1015 NOSIG
03:30
V
18 °C 10 km+ - 360° 360° 0 kt METAR EPWA 150130Z 00000KT CAVOK 18/18 Q1015 NOSIG
03:00
V
18 °C 10 km+ - 150° 150° 3 kt METAR EPWA 150100Z 15003KT CAVOK 18/18 Q1015 NOSIG
02:30
V
18 °C 10 km+ - 160° 160° 2 kt METAR EPWA 150030Z 16002KT CAVOK 18/18 Q1015 NOSIG
02:00
V
19 °C 10 km+ - 140° 140° 2 kt METAR EPWA 150000Z 14002KT CAVOK 19/18 Q1015 NOSIG
01:30
V
19 °C 10 km+ - 120° 120° 3 kt METAR EPWA 142330Z 12003KT CAVOK 19/18 Q1015 NOSIG
01:00
V
19 °C 10 km+ - 100° 100° 3 kt METAR EPWA 142300Z 10003KT CAVOK 19/18 Q1015 NOSIG
00:30
V
21 °C 10 km+ - 090° 090° 5 kt METAR EPWA 142230Z 09005KT CAVOK 21/18 Q1015 NOSIG
00:00
V
21 °C 10 km+ - 100° 100° 5 kt METAR EPWA 142200Z 10005KT CAVOK 21/18 Q1015 NOSIG

14 de julio de 2024

Hora Código Tiempo Temp. Visibilidad Cielo nuboso Viento METAR/SPECI
23:30
V
21 °C 10 km+ - 120° 120° 5 kt METAR EPWA 142130Z 12005KT CAVOK 21/18 Q1015 NOSIG
23:00
V
21 °C 10 km+ - 130° 130° 6 kt METAR EPWA 142100Z 13006KT CAVOK 21/18 Q1015 NOSIG
22:30
V
21 °C 10 km+ - 140° 140° 4 kt METAR EPWA 142030Z 14004KT CAVOK 21/17 Q1015 NOSIG
22:00
V
21 °C 10 km+ - 150° 150° 3 kt METAR EPWA 142000Z 15003KT CAVOK 21/17 Q1015 NOSIG
21:30
V
21 °C 10 km+ - 140° 140° 4 kt METAR EPWA 141930Z 14004KT 110V170 CAVOK 21/17 Q1015 NOSIG
21:00
V
22 °C 10 km+ - 120° 120° 4 kt METAR EPWA 141900Z 12004KT CAVOK 22/17 Q1015 NOSIG
20:30
V
24 °C 10 km+ - 130° 130° 7 kt METAR EPWA 141830Z 13007KT 9999 FEW042 24/17 Q1015 NOSIG
20:00
V
24 °C 10 km+ - 110° 110° 6 kt METAR EPWA 141800Z 11006KT 9999 FEW042 24/16 Q1014 NOSIG
19:30
V
25 °C 10 km+ - 090° 090° 4 kt METAR EPWA 141730Z 09004KT 070V140 9999 FEW042 25/16 Q1014 NOSIG
19:00
V
25 °C 10 km+ - 120° 120° 4 kt METAR EPWA 141700Z 12004KT 090V170 9999 FEW042 25/16 Q1014 NOSIG
18:30
V
26 °C 10 km+ - Var Var 2 kt METAR EPWA 141630Z VRB02KT 9999 FEW045 26/16 Q1014 NOSIG
18:00
V
25 °C 10 km+ - 070° 070° 4 kt METAR EPWA 141600Z 07004KT 030V110 9999 FEW045 25/16 Q1014 NOSIG
17:30
V
25 °C 10 km+ - 110° 110° 5 kt METAR EPWA 141530Z 11005KT 020V160 9999 SCT043 25/16 Q1014 NOSIG
17:00
V
25 °C 10 km+ - 100° 100° 7 kt METAR EPWA 141500Z 10007KT 040V180 9999 SCT042 25/16 Q1014 NOSIG
16:30
V
26 °C 10 km+ 4.000 ft Var Var 3 kt METAR EPWA 141430Z VRB03KT 9999 BKN040 26/15 Q1015 NOSIG
16:00
V
25 °C 10 km+ 4.000 ft 070° 070° 4 kt METAR EPWA 141400Z 07004KT 360V110 9999 BKN040 25/16 Q1015 NOSIG
15:30
V
25 °C 10 km+ - 080° 080° 6 kt METAR EPWA 141330Z 08006KT 030V120 9999 SCT037 25/16 Q1014 NOSIG
15:00
V
24 °C 10 km+ - Var Var 4 kt METAR EPWA 141300Z VRB04KT 9999 FEW037 24/15 Q1014 NOSIG
14:30
V
24 °C 10 km+ - 070° 070° 6 kt METAR EPWA 141230Z 07006KT 010V120 9999 FEW036 24/15 Q1014 NOSIG
14:00
V
23 °C 10 km+ - 350° 350° 5 kt METAR EPWA 141200Z 35005KT 310V040 9999 FEW030 23/16 Q1015 NOSIG
13:30
V
24 °C 10 km+ - Var Var 5 kt METAR EPWA 141130Z VRB05KT 9999 SCT024 24/16 Q1015 NOSIG
13:00
V
23 °C 10 km+ - Var Var 4 kt METAR EPWA 141100Z VRB04KT 9999 SCT020 23/16 Q1015 NOSIG
12:30
V
22 °C 10 km+ - 060° 060° 4 kt METAR EPWA 141030Z 06004KT 350V130 9999 FEW020 22/16 Q1015 NOSIG
12:00
V
21 °C 10 km+ - Var Var 3 kt METAR EPWA 141000Z VRB03KT 9999 FEW016 21/16 Q1015 NOSIG
11:30
V
21 °C 10 km+ - 020° 020° 4 kt METAR EPWA 140930Z 02004KT 320V070 9999 FEW013 21/16 Q1015 NOSIG
11:00
V
19 °C 10 km+ - 070° 070° 4 kt METAR EPWA 140900Z 07004KT 040V110 9999 FEW013 19/16 Q1015 NOSIG
10:30
V
19 °C 10 km+ - 090° 090° 6 kt METAR EPWA 140830Z 09006KT 9999 FEW012 19/16 Q1015 NOSIG
10:00
V
19 °C 10 km+ - 080° 080° 6 kt METAR EPWA 140800Z 08006KT CAVOK 19/16 Q1015 NOSIG
09:30
V
19 °C 10 km+ - Var Var 2 kt METAR EPWA 140730Z VRB02KT CAVOK 19/16 Q1015 NOSIG
09:00
V
19 °C 10 km+ - Var Var 2 kt METAR EPWA 140700Z VRB02KT CAVOK 19/16 Q1015 NOSIG
08:30
V
18 °C 10 km+ - Var Var 2 kt METAR EPWA 140630Z VRB02KT CAVOK 18/16 Q1015 NOSIG
08:00
V
18 °C 10 km+ - Var Var 2 kt METAR EPWA 140600Z VRB02KT 9999 -SHRA FEW060CB 18/15 Q1015 NOSIG
07:30
V
17 °C 10 km+ - Var Var 2 kt METAR EPWA 140530Z VRB02KT 9999 -SHRA FEW040 SCT056CB 17/15 Q1015 TEMPO SHRA
07:00
V
17 °C 10 km+ 5.300 ft Var Var 2 kt METAR EPWA 140500Z VRB02KT 9999 -SHRA BKN053CB 17/15 Q1015 NOSIG
06:30
V
17 °C 10 km+ - 330° 330° 4 kt METAR EPWA 140430Z 33004KT 300V010 9999 SCT053CB 17/15 Q1015 RESHRA TEMPO SHRA
06:00
V
17 °C 8 km 5.000 ft 350° 350° 6 kt METAR EPWA 140400Z 35006KT 8000 SHRA BKN050CB 17/15 Q1015 NOSIG
05:30
V
18 °C 10 km+ - Var Var 2 kt METAR EPWA 140330Z VRB02KT 9999 -SHRA SCT056CB 18/14 Q1016 NOSIG
05:00
V
17 °C 10 km+ - Var Var 1 kt METAR EPWA 140300Z VRB01KT 9999 FEW060CB 17/15 Q1015 NOSIG
04:30
V
18 °C 10 km+ - 050° 050° 6 kt METAR EPWA 140230Z 05006KT 330V100 9999 -SHRA FEW060CB 18/15 Q1015 RETSRA NOSIG
04:00
V
18 °C 8 km 6.000 ft 030° 030° 12 kt METAR EPWA 140200Z 03012KT 8000 TSRA BKN060CB 18/15 Q1013 NOSIG
03:30
V
19 °C 10 km+ - 330° 330° 6 kt METAR EPWA 140130Z 33006KT CAVOK 19/14 Q1015 TEMPO 3000 SHRA
03:00
V
19 °C 10 km+ - 360° 360° 8 kt METAR EPWA 140100Z 36008KT CAVOK 19/14 Q1014 NOSIG
02:30
V
19 °C 10 km+ - 360° 360° 9 kt METAR EPWA 140030Z 36009KT CAVOK 19/15 Q1014 NOSIG
02:00
V
19 °C 10 km+ - 340° 340° 10 kt METAR EPWA 140000Z 34010KT CAVOK 19/15 Q1014 NOSIG
01:30
V
20 °C 10 km+ - 320° 320° 9 kt METAR EPWA 132330Z 32009KT CAVOK 20/16 Q1014 NOSIG
01:00
V
20 °C 10 km+ - 290° 290° 8 kt METAR EPWA 132300Z 29008KT CAVOK 20/16 Q1014 NOSIG
00:30
V
20 °C 10 km+ - 290° 290° 8 kt METAR EPWA 132230Z 29008KT CAVOK 20/16 Q1014 NOSIG
00:00
V
19 °C 10 km+ - 280° 280° 6 kt METAR EPWA 132200Z 28006KT CAVOK 19/16 Q1014 NOSIG

13 de julio de 2024

Hora Código Tiempo Temp. Visibilidad Cielo nuboso Viento METAR/SPECI
23:30
V
20 °C 10 km+ - 280° 280° 4 kt METAR EPWA 132130Z 28004KT CAVOK 20/16 Q1013 NOSIG
23:00
V
21 °C 10 km+ - 280° 280° 6 kt METAR EPWA 132100Z 28006KT CAVOK 21/16 Q1013 NOSIG
22:30
V
21 °C 10 km+ - 280° 280° 7 kt METAR EPWA 132030Z 28007KT CAVOK 21/16 Q1013 NOSIG
22:00
V
22 °C 10 km+ - 290° 290° 4 kt METAR EPWA 132000Z 29004KT CAVOK 22/16 Q1013 NOSIG
21:30
V
22 °C 10 km+ - 280° 280° 6 kt METAR EPWA 131930Z 28006KT CAVOK 22/16 Q1013 NOSIG
21:00
V
23 °C 10 km+ - 280° 280° 10 kt METAR EPWA 131900Z 28010KT CAVOK 23/16 Q1013 NOSIG
20:30
V
24 °C 10 km+ - 270° 270° 10 kt METAR EPWA 131830Z 27010KT CAVOK 24/16 Q1012 NOSIG
20:00
V
25 °C 10 km+ - 260° 260° 10 kt METAR EPWA 131800Z 26010KT CAVOK 25/17 Q1012 NOSIG
19:30
V
26 °C 10 km+ - 280° 280° 11 kt METAR EPWA 131730Z 28011KT CAVOK 26/16 Q1012 NOSIG
19:00
V
26 °C 10 km+ - 280° 280° 10 kt METAR EPWA 131700Z 28010KT CAVOK 26/17 Q1011 NOSIG
18:30
V
26 °C 10 km+ - 270° 270° 11 kt METAR EPWA 131630Z 27011KT 240V300 CAVOK 26/17 Q1011 NOSIG
18:00
V
28 °C 10 km+ - 270° 270° 11 kt METAR EPWA 131600Z 27011KT CAVOK 28/18 Q1011 NOSIG
17:30
V
27 °C 10 km+ - 260° 260° 10 kt METAR EPWA 131530Z 26010KT CAVOK 27/18 Q1011 NOSIG
17:00
V
28 °C 10 km+ - 270° 270° 11 kt METAR EPWA 131500Z 27011KT 230V290 CAVOK 28/18 Q1011 NOSIG
16:30
V
28 °C 10 km+ - 280° 280° 10 kt METAR EPWA 131430Z 28010KT 230V300 9999 FEW048 28/18 Q1010 NOSIG
16:00
V
28 °C 10 km+ - 260° 260° 8 kt METAR EPWA 131400Z 26008KT 230V300 9999 FEW048 28/17 Q1011 NOSIG
15:30
V
28 °C 10 km+ - 260° 260° 8 kt METAR EPWA 131330Z 26008KT 220V280 9999 FEW048 28/17 Q1011 NOSIG
15:00
V
28 °C 10 km+ - 260° 260° 10 kt METAR EPWA 131300Z 26010KT 240V300 9999 SCT048 28/18 Q1011 NOSIG
14:30
V
27 °C 10 km+ - 280° 280° 10 kt METAR EPWA 131230Z 28010KT 250V310 9999 SCT048 27/17 Q1011 NOSIG
14:00
V
28 °C 10 km+ - 250° 250° 13 kt METAR EPWA 131200Z 25013KT 220V290 9999 SCT045 28/17 Q1010 NOSIG
13:30
V
27 °C 10 km+ - 260° 260° 11 kt METAR EPWA 131130Z 26011KT 220V290 9999 SCT043 27/17 Q1010 NOSIG
13:00
V
27 °C 10 km+ - 250° 250° 11 kt METAR EPWA 131100Z 25011KT 220V280 9999 FEW037 27/17 Q1010 NOSIG
12:30
V
26 °C 10 km+ - 280° 280° 12 kt METAR EPWA 131030Z 28012KT 230V300 9999 FEW037 26/17 Q1010 NOSIG
12:00
V
26 °C 10 km+ - 250° 250° 13 kt METAR EPWA 131000Z 25013KT 220V280 9999 FEW036 26/17 Q1010 NOSIG
11:30
V
26 °C 10 km+ - 260° 260° 12 kt METAR EPWA 130930Z 26012KT 9999 FEW035 26/17 Q1009 NOSIG
11:00
V
26 °C 10 km+ - 250° 250° 12 kt METAR EPWA 130900Z 25012KT 9999 FEW030 26/17 Q1009 NOSIG
10:30
V
25 °C 10 km+ - 240° 240° 11 kt METAR EPWA 130830Z 24011KT 220V280 9999 FEW026 25/18 Q1009 NOSIG
10:00
V
25 °C 10 km+ - 260° 260° 10 kt METAR EPWA 130800Z 26010KT 9999 FEW020 25/18 Q1009 NOSIG
09:30
V
25 °C 10 km+ - 230° 230° 9 kt METAR EPWA 130730Z 23009KT 200V270 9999 FEW018 25/19 Q1008 NOSIG
09:00
V
23 °C 10 km+ - 230° 230° 10 kt METAR EPWA 130700Z 23010KT 200V270 9999 FEW016 23/19 Q1008 NOSIG
08:30
V
23 °C 10 km+ - 230° 230° 8 kt METAR EPWA 130630Z 23008KT 9999 SCT016 23/20 Q1008 NOSIG
08:00
V
22 °C 10 km+ - 200° 200° 7 kt METAR EPWA 130600Z 20007KT 170V230 9999 FEW016 22/22 Q1008 NOSIG
Cambiar esta información